Northolt, United Kingdom

11:05 AM BST on July 30, 2016 (GMT +0100)
Northolt Air Base | | Change Station

Elev 121 ft 51.55 °N, 0.42 °W | Updated 15 minutes ago

Mostly Cloudy
Mostly Cloudy
63 °F
Feels Like 63 °F
N
2
Wind Variable Wind from NNE

Today
High -- | Low -- °F
--% Chance of Precip.
Yesterday
High -- | Low -- °F
Precip. -- in
Pressure 29.92 in
Visibility 6.2 miles
Clouds Few 2200 ft
Mostly Cloudy 6000 ft
Dew Point 54 °F
Humidity 72%
Rainfall 0.00 in
Snow Depth Not available.
5:22 AM 8:52 PM
Waning Crescent, 14% visible
METAR EGWU 300950Z 02002KT 9999 FEW022 BKN060 17/12 Q1013 BLU NOSIG
Pressure 29.92 in
Visibility 6.2 miles
Clouds Few 2200 ft
Mostly Cloudy 6000 ft
Dew Point 54 °F
Humidity 72%
Rainfall 0.00 in
Snow Depth Not available.
5:22 AM 8:52 PM
Waning Crescent, 14% visible
METAR EGWU 300950Z 02002KT 9999 FEW022 BKN060 17/12 Q1013 BLU NOSIG

10-Day Weather Forecast

×

Almanac

Astronomy

Jul. 30, 2016 Rise Set
Actual Time
Civil Twilight
Nautical Twilight
Astronomical Twilight
Moon
Length of Visible Light
Length of Day
Tomorrow will be .
, % of the Moon is Illuminated

Today's Extremes

Country Highs Country Lows

Community

WunderPhotos

Upload Photos

1,928,528 photos uploaded!

WunderBlog® & News

Nearby

Air Quality

  Air Quality AQ Index Pollutant
Not available.

Snow Depth

Station Depth Elevation

Earthquake Activity

City Distance Mag. Time & Date
Minimum magnitude displayed is 2.5.

Coastal Water Temperatures

Place Temperature

Stations

Nearby Weather Stations

Station Location Temp. Windchill Dew Point Humidity Wind Precip. Elev Updated Type